Coitsville, Ohio
Current Conditions -  °F | °C
As of 7:51 AM on Saturday 25 Oct 2014 (Local Time) from KYNG Reporting Station
Broken Clouds Broken Clouds  
Wind Chill: 44°   Ceiling: 3300
Heat Index: 47°   Visibility: 10mi
Dew Point: 40°   Wind: 6mph
Humidity: 77%   Direction: 220°SW
Pressure: 29.92"   Gusts: NA
Location:  41.0609°N, 80.5426°W
Report Text: KYNG 251151Z 22005KT 10SM BKN033 08/04 A2992 RMK AO2 SLP134 T00830044 10094 20072 58003 $
Loading
Personal Weather Stations






























Interactive Weather Map
Tropical Storm Tracking
New forecast layout! Learn more

10-Day Weather Forecast

Advertisements
Track Severe Weather on mobile